Dai 8 Tokuharu — JD3710 — position and weather

sailwx.info

Track history (hours):
 
Tides and Currents Weather Stations Pressure Air Temp Water Temp Dewpoint Dewpoint Depression Visibility Wind Speed Wind Dir Waves Ship Positions

Dai 8 Tokuharu

Last reported at 2017-Dec-11 01:23 UTC. Time now 2017-Dec-13 05:40 UTC.
Position N 33°51' E 134°51'.

Length 82 m; draft 5 m.

Type: Cargo ship. MMSI: 431005534.

Date/timePositionNaut miles runAvg speedWind from/ knotsBaromVisibWave heightAir tempDewpointWater temp
2017-Dec-11 01:23N 33°51' E 134°51'712.7
2017-Dec-11 00:52N 33°57' E 134°53'512.5
2017-Dec-11 00:30N 34°02' E 134°54'612.5
2017-Dec-11 00:00N 34°08' E 134°56'713.1
2017-Dec-10 23:30N 34°14' E 134°58'713.6
2017-Dec-10 23:00N 34°21' E 134°60'612.6
2017-Dec-10 22:31N 34°27' E 135°01'612.5
2017-Dec-10 22:01N 34°33' E 135°03'510.0
2017-Dec-10 21:31N 34°37' E 134°59'612.2
2017-Dec-10 21:01N 34°39' E 134°52'4 7.2
2017-Dec-10 20:24N 34°43' E 134°50'0 0.0
2017-Dec-10 19:58N 34°43' E 134°50'0 0.0
2017-Dec-10 19:29N 34°43' E 134°50'0 0.0
2017-Dec-10 19:00N 34°43' E 134°50'0 0.0
2017-Dec-10 18:28N 34°43' E 134°50'0 0.0
2017-Dec-10 18:00N 34°43' E 134°50'0 0.0
2017-Dec-10 17:30N 34°43' E 134°50'0 0.0
2017-Dec-10 17:00N 34°43' E 134°50'0 0.0
2017-Dec-10 16:30N 34°43' E 134°50'0 0.0
2017-Dec-10 15:56N 34°43' E 134°50'2 3.7
2017-Dec-10 15:31N 34°41' E 134°50'611.2
2017-Dec-10 15:01N 34°37' E 134°55'611.1
2017-Dec-10 14:30N 34°37' E 135°02'5 9.0
2017-Dec-10 14:00N 34°34' E 135°05'611.1
2017-Dec-10 13:31N 34°29' E 135°03'611.3
2017-Dec-10 13:00N 34°23' E 135°02'510.9
2017-Dec-10 12:31N 34°18' E 134°60'510.0
2017-Dec-10 12:01N 34°13' E 134°59'611.1
2017-Dec-10 11:30N 34°07' E 134°58'611.6
2017-Dec-10 11:00N 34°02' E 134°56'611.5
2017-Dec-10 10:29N 33°56' E 134°54'611.3
2017-Dec-10 09:55N 33°50' E 134°51'1 0.0
2017-Dec-09 10:52N 33°51' E 134°51'612.9
2017-Dec-09 10:24N 33°57' E 134°53'512.8
2017-Dec-09 10:01N 34°02' E 134°54'612.5
2017-Dec-09 09:30N 34°08' E 134°56'612.9
2017-Dec-09 09:01N 34°14' E 134°58'612.9
2017-Dec-09 08:30N 34°20' E 134°60'612.1
2017-Dec-09 08:00N 34°26' E 135°01'612.6
2017-Dec-09 07:30N 34°33' E 135°03'510.7
2017-Dec-09 07:00N 34°37' E 134°60'611.9
2017-Dec-09 06:31N 34°38' E 134°53'510.6
2017-Dec-09 06:01N 34°42' E 134°50'0 0.1
2017-Dec-09 04:39N 34°43' E 134°50'0 0.0
2017-Dec-09 04:29N 34°43' E 134°50'0 0.0
2017-Dec-09 03:53N 34°43' E 134°50'0 0.0
2017-Dec-09 03:29N 34°43' E 134°50'0 0.0
2017-Dec-09 02:54N 34°43' E 134°50'0 0.0
2017-Dec-09 02:21N 34°43' E 134°50'0 1.3
2017-Dec-09 02:01N 34°42' E 134°50'0 0.0
2017-Dec-09 01:31N 34°42' E 134°50'0 0.0
2017-Dec-09 01:01N 34°42' E 134°50'0 0.0
2017-Dec-09 00:30N 34°42' E 134°50'0 0.0
2017-Dec-08 23:59N 34°42' E 134°50'0 0.0
2017-Dec-08 23:30N 34°42' E 134°50'0 0.0
2017-Dec-08 23:00N 34°42' E 134°50'0 0.0
2017-Dec-08 22:31N 34°42' E 134°50'0 0.0
2017-Dec-08 22:00N 34°42' E 134°50'0 0.1
2017-Dec-08 21:30N 34°42' E 134°50'0 0.0
2017-Dec-08 21:01N 34°42' E 134°50'0 0.0
2017-Dec-08 20:31N 34°42' E 134°50'0 0.0
2017-Dec-08 20:00N 34°42' E 134°50'0 0.0
2017-Dec-08 19:31N 34°42' E 134°50'0 0.0
2017-Dec-08 19:00N 34°42' E 134°50'0 0.0
2017-Dec-08 18:31N 34°42' E 134°50'0 0.0
2017-Dec-08 18:01N 34°42' E 134°50'4 8.8
2017-Dec-08 17:30N 34°38' E 134°52'510.9
2017-Dec-08 17:01N 34°38' E 134°59'611.3
2017-Dec-08 16:31N 34°35' E 135°05'611.9
2017-Dec-08 16:00N 34°29' E 135°03'611.6
2017-Dec-08 15:30N 34°24' E 135°02'611.7
2017-Dec-08 15:01N 34°18' E 134°60'611.1
2017-Dec-08 14:31N 34°13' E 134°59'510.9
2017-Dec-08 14:00N 34°07' E 134°58'611.2
2017-Dec-08 13:31N 34°02' E 134°56'611.0
2017-Dec-08 13:00N 33°57' E 134°54'510.4
2017-Dec-08 12:30N 33°52' E 134°51'1 0.0
2017-Dec-07 00:56N 33°51' E 134°51'611.9
2017-Dec-07 00:25N 33°57' E 134°53'812.0
2017-Dec-06 23:45N 34°05' E 134°55'411.9
2017-Dec-06 23:26N 34°09' E 134°56'512.3
2017-Dec-06 23:00N 34°14' E 134°58'510.6
2017-Dec-06 22:31N 34°19' E 134°59'611.2
2017-Dec-06 22:01N 34°24' E 134°60'611.3
2017-Dec-06 21:31N 34°30' E 135°02'511.0
2017-Dec-06 21:01N 34°35' E 135°03'  
2017-Dec-04 10:30N 34°37' E 135°02'612.2
2017-Dec-04 10:00N 34°38' E 135°09'4 7.3
2017-Dec-04 09:30N 34°41' E 135°12'0 0.0
2017-Dec-04 09:00N 34°41' E 135°12'0 0.0
2017-Dec-04 08:30N 34°41' E 135°12'0 0.0
2017-Dec-04 08:00N 34°41' E 135°12'0 0.0
2017-Dec-04 07:30N 34°41' E 135°12'0 0.0
2017-Dec-04 07:00N 34°41' E 135°12'0 0.0
2017-Dec-04 06:30N 34°41' E 135°12'0 0.0
2017-Dec-04 06:00N 34°41' E 135°12'0 0.0
2017-Dec-04 05:30N 34°41' E 135°12'0 0.0
2017-Dec-04 05:00N 34°41' E 135°12'0 0.0
2017-Dec-04 04:30N 34°41' E 135°12'0 0.0
2017-Dec-04 04:00N 34°41' E 135°12'0 0.0
2017-Dec-04 03:30N 34°41' E 135°12'0 0.0
2017-Dec-04 03:00N 34°41' E 135°12'0 0.0
2017-Dec-04 02:30N 34°41' E 135°12'0 0.0
2017-Dec-04 02:00N 34°41' E 135°12'0 0.0
2017-Dec-04 01:30N 34°41' E 135°12'0 0.0
2017-Dec-04 01:00N 34°41' E 135°12'0 0.0
2017-Dec-04 00:30N 34°41' E 135°12'0 0.0
2017-Dec-04 00:00N 34°41' E 135°12'0 0.0
2017-Dec-03 23:30N 34°41' E 135°12'0 0.0
2017-Dec-03 23:00N 34°41' E 135°12'0 0.0
2017-Dec-03 22:30N 34°41' E 135°12'0 0.0
2017-Dec-03 22:00N 34°41' E 135°12'0 0.0
2017-Dec-03 21:30N 34°41' E 135°12'0 0.0
2017-Dec-03 21:00N 34°41' E 135°12'0 0.0
2017-Dec-03 20:30N 34°41' E 135°12'0 0.0
2017-Dec-03 20:00N 34°41' E 135°12'0 0.0
2017-Dec-03 19:30N 34°41' E 135°12'0 0.0
2017-Dec-03 19:00N 34°41' E 135°12'0 0.0
2017-Dec-03 18:30N 34°41' E 135°12'0 0.0
2017-Dec-03 18:00N 34°41' E 135°12'0 0.0
2017-Dec-03 17:30N 34°41' E 135°12'0 0.0
2017-Dec-03 17:00N 34°41' E 135°12'0 0.0
2017-Dec-03 16:30N 34°41' E 135°12'0 0.0
2017-Dec-03 16:00N 34°41' E 135°12'0 0.0
2017-Dec-03 15:30N 34°41' E 135°12'0 0.0
2017-Dec-03 15:00N 34°41' E 135°12'0 0.0
2017-Dec-03 14:30N 34°41' E 135°12'0 0.0
2017-Dec-03 14:00N 34°41' E 135°12'0 0.0
2017-Dec-03 13:30N 34°41' E 135°12'0 0.0
2017-Dec-03 13:00N 34°41' E 135°12'1 2.1
2017-Dec-03 12:30N 34°40' E 135°11'611.3
2017-Dec-03 12:00N 34°35' E 135°09'611.5
2017-Dec-03 11:30N 34°29' E 135°06'612.1
2017-Dec-03 11:00N 34°24' E 135°03'612.1
2017-Dec-03 10:30N 34°18' E 135°00'612.1
2017-Dec-03 10:00N 34°12' E 134°59'611.8
2017-Dec-03 09:30N 34°07' E 134°57'612.1
2017-Dec-03 09:00N 34°00' E 134°55'611.5
2017-Dec-03 08:30N 33°55' E 134°53'611.4
2017-Dec-03 07:57N 33°49' E 134°50'1 0.1
2017-Dec-02 07:15N 33°51' E 134°51'512.6
2017-Dec-02 06:49N 33°56' E 134°52'412.2
2017-Dec-02 06:30N 33°60' E 134°53'612.5
2017-Dec-02 06:00N 34°06' E 134°55'612.7
2017-Dec-02 05:30N 34°12' E 134°57'713.7
2017-Dec-02 05:00N 34°19' E 134°59'713.1
2017-Dec-02 04:30N 34°24' E 135°02'713.1
2017-Dec-02 04:00N 34°30' E 135°07'612.9
2017-Dec-02 03:30N 34°35' E 135°12'510.9
2017-Dec-02 03:00N 34°39' E 135°16'3 5.7
2017-Dec-02 02:30N 34°42' E 135°14'0 0.0
2017-Dec-02 02:00N 34°42' E 135°14'0 0.0
2017-Dec-02 01:30N 34°42' E 135°14'0 0.0
2017-Dec-02 01:00N 34°42' E 135°14'0 0.0
2017-Dec-02 00:30N 34°42' E 135°14'0 0.0
2017-Dec-02 00:00N 34°42' E 135°14'0 0.0
2017-Dec-01 23:30N 34°42' E 135°14'0 0.0
2017-Dec-01 23:00N 34°42' E 135°14'3 6.2
2017-Dec-01 22:30N 34°39' E 135°16'2 4.1
2017-Dec-01 22:00N 34°37' E 135°17'0 0.0
2017-Dec-01 21:30N 34°37' E 135°17'0 0.0
2017-Dec-01 21:00N 34°37' E 135°17'0 0.0
2017-Dec-01 20:30N 34°37' E 135°17'0 0.0
2017-Dec-01 20:00N 34°37' E 135°17'0 0.0
2017-Dec-01 19:30N 34°37' E 135°17'0 0.0
2017-Dec-01 19:00N 34°37' E 135°17'2 3.6
2017-Dec-01 18:30N 34°36' E 135°16'611.8
2017-Dec-01 18:00N 34°31' E 135°12'611.0
2017-Dec-01 17:30N 34°27' E 135°08'611.1
2017-Dec-01 17:00N 34°22' E 135°04'611.1
2017-Dec-01 16:30N 34°18' E 134°60'5 9.2
2017-Dec-01 16:00N 34°13' E 134°59'510.2
2017-Dec-01 15:30N 34°08' E 134°58'510.9
2017-Dec-01 15:00N 34°03' E 134°57'510.9
2017-Dec-01 14:30N 33°58' E 134°55'510.2
2017-Dec-01 14:00N 33°53' E 134°52'  
Track history (hours):
 
Tides and Currents Weather Stations Pressure Air Temp Water Temp Dewpoint Dewpoint Depression Visibility Wind Speed Wind Dir Waves Ship Positions

Dai 8 Tokuharu

Last reported at 2017-Dec-11 01:23 UTC. Time now 2017-Dec-13 05:40 UTC.
Position N 33°51' E 134°51'.

Length 82 m; draft 5 m.

Type: Cargo ship. MMSI: 431005534.

Date/timePositionNaut miles runAvg speedWind from/ knotsBaromVisibWave heightAir tempDewpointWater temp
2017-Dec-11 01:23N 33°51' E 134°51'712.7
2017-Dec-11 00:52N 33°57' E 134°53'512.5
2017-Dec-11 00:30N 34°02' E 134°54'612.5
2017-Dec-11 00:00N 34°08' E 134°56'713.1
2017-Dec-10 23:30N 34°14' E 134°58'713.6
2017-Dec-10 23:00N 34°21' E 134°60'612.6
2017-Dec-10 22:31N 34°27' E 135°01'612.5
2017-Dec-10 22:01N 34°33' E 135°03'510.0
2017-Dec-10 21:31N 34°37' E 134°59'612.2
2017-Dec-10 21:01N 34°39' E 134°52'4 7.2
2017-Dec-10 20:24N 34°43' E 134°50'0 0.0
2017-Dec-10 19:58N 34°43' E 134°50'0 0.0
2017-Dec-10 19:29N 34°43' E 134°50'0 0.0
2017-Dec-10 19:00N 34°43' E 134°50'0 0.0
2017-Dec-10 18:28N 34°43' E 134°50'0 0.0
2017-Dec-10 18:00N 34°43' E 134°50'0 0.0
2017-Dec-10 17:30N 34°43' E 134°50'0 0.0
2017-Dec-10 17:00N 34°43' E 134°50'0 0.0
2017-Dec-10 16:30N 34°43' E 134°50'0 0.0
2017-Dec-10 15:56N 34°43' E 134°50'2 3.7
2017-Dec-10 15:31N 34°41' E 134°50'611.2
2017-Dec-10 15:01N 34°37' E 134°55'611.1
2017-Dec-10 14:30N 34°37' E 135°02'5 9.0
2017-Dec-10 14:00N 34°34' E 135°05'611.1
2017-Dec-10 13:31N 34°29' E 135°03'611.3
2017-Dec-10 13:00N 34°23' E 135°02'510.9
2017-Dec-10 12:31N 34°18' E 134°60'510.0
2017-Dec-10 12:01N 34°13' E 134°59'611.1
2017-Dec-10 11:30N 34°07' E 134°58'611.6
2017-Dec-10 11:00N 34°02' E 134°56'611.5
2017-Dec-10 10:29N 33°56' E 134°54'611.3
2017-Dec-10 09:55N 33°50' E 134°51'1 0.0
2017-Dec-09 10:52N 33°51' E 134°51'612.9
2017-Dec-09 10:24N 33°57' E 134°53'512.8
2017-Dec-09 10:01N 34°02' E 134°54'612.5
2017-Dec-09 09:30N 34°08' E 134°56'612.9
2017-Dec-09 09:01N 34°14' E 134°58'612.9
2017-Dec-09 08:30N 34°20' E 134°60'612.1
2017-Dec-09 08:00N 34°26' E 135°01'612.6
2017-Dec-09 07:30N 34°33' E 135°03'510.7
2017-Dec-09 07:00N 34°37' E 134°60'611.9
2017-Dec-09 06:31N 34°38' E 134°53'510.6
2017-Dec-09 06:01N 34°42' E 134°50'0 0.1
2017-Dec-09 04:39N 34°43' E 134°50'0 0.0
2017-Dec-09 04:29N 34°43' E 134°50'0 0.0
2017-Dec-09 03:53N 34°43' E 134°50'0 0.0
2017-Dec-09 03:29N 34°43' E 134°50'0 0.0
2017-Dec-09 02:54N 34°43' E 134°50'0 0.0
2017-Dec-09 02:21N 34°43' E 134°50'0 1.3
2017-Dec-09 02:01N 34°42' E 134°50'0 0.0
2017-Dec-09 01:31N 34°42' E 134°50'0 0.0
2017-Dec-09 01:01N 34°42' E 134°50'0 0.0
2017-Dec-09 00:30N 34°42' E 134°50'0 0.0
2017-Dec-08 23:59N 34°42' E 134°50'0 0.0
2017-Dec-08 23:30N 34°42' E 134°50'0 0.0
2017-Dec-08 23:00N 34°42' E 134°50'0 0.0
2017-Dec-08 22:31N 34°42' E 134°50'0 0.0
2017-Dec-08 22:00N 34°42' E 134°50'0 0.1
2017-Dec-08 21:30N 34°42' E 134°50'0 0.0
2017-Dec-08 21:01N 34°42' E 134°50'0 0.0
2017-Dec-08 20:31N 34°42' E 134°50'0 0.0
2017-Dec-08 20:00N 34°42' E 134°50'0 0.0
2017-Dec-08 19:31N 34°42' E 134°50'0 0.0
2017-Dec-08 19:00N 34°42' E 134°50'0 0.0
2017-Dec-08 18:31N 34°42' E 134°50'0 0.0
2017-Dec-08 18:01N 34°42' E 134°50'4 8.8
2017-Dec-08 17:30N 34°38' E 134°52'510.9
2017-Dec-08 17:01N 34°38' E 134°59'611.3
2017-Dec-08 16:31N 34°35' E 135°05'611.9
2017-Dec-08 16:00N 34°29' E 135°03'611.6
2017-Dec-08 15:30N 34°24' E 135°02'611.7
2017-Dec-08 15:01N 34°18' E 134°60'611.1
2017-Dec-08 14:31N 34°13' E 134°59'510.9
2017-Dec-08 14:00N 34°07' E 134°58'611.2
2017-Dec-08 13:31N 34°02' E 134°56'611.0
2017-Dec-08 13:00N 33°57' E 134°54'510.4
2017-Dec-08 12:30N 33°52' E 134°51'1 0.0
2017-Dec-07 00:56N 33°51' E 134°51'611.9
2017-Dec-07 00:25N 33°57' E 134°53'812.0
2017-Dec-06 23:45N 34°05' E 134°55'411.9
2017-Dec-06 23:26N 34°09' E 134°56'512.3
2017-Dec-06 23:00N 34°14' E 134°58'510.6
2017-Dec-06 22:31N 34°19' E 134°59'611.2
2017-Dec-06 22:01N 34°24' E 134°60'611.3
2017-Dec-06 21:31N 34°30' E 135°02'511.0
2017-Dec-06 21:01N 34°35' E 135°03'  
2017-Dec-04 10:30N 34°37' E 135°02'612.2
2017-Dec-04 10:00N 34°38' E 135°09'4 7.3
2017-Dec-04 09:30N 34°41' E 135°12'0 0.0
2017-Dec-04 09:00N 34°41' E 135°12'0 0.0
2017-Dec-04 08:30N 34°41' E 135°12'0 0.0
2017-Dec-04 08:00N 34°41' E 135°12'0 0.0
2017-Dec-04 07:30N 34°41' E 135°12'0 0.0
2017-Dec-04 07:00N 34°41' E 135°12'0 0.0
2017-Dec-04 06:30N 34°41' E 135°12'0 0.0
2017-Dec-04 06:00N 34°41' E 135°12'0 0.0
2017-Dec-04 05:30N 34°41' E 135°12'0 0.0
2017-Dec-04 05:00N 34°41' E 135°12'0 0.0
2017-Dec-04 04:30N 34°41' E 135°12'0 0.0
2017-Dec-04 04:00N 34°41' E 135°12'0 0.0
2017-Dec-04 03:30N 34°41' E 135°12'0 0.0
2017-Dec-04 03:00N 34°41' E 135°12'0 0.0
2017-Dec-04 02:30N 34°41' E 135°12'0 0.0
2017-Dec-04 02:00N 34°41' E 135°12'0 0.0
2017-Dec-04 01:30N 34°41' E 135°12'0 0.0
2017-Dec-04 01:00N 34°41' E 135°12'0 0.0
2017-Dec-04 00:30N 34°41' E 135°12'0 0.0
2017-Dec-04 00:00N 34°41' E 135°12'0 0.0
2017-Dec-03 23:30N 34°41' E 135°12'0 0.0
2017-Dec-03 23:00N 34°41' E 135°12'0 0.0
2017-Dec-03 22:30N 34°41' E 135°12'0 0.0
2017-Dec-03 22:00N 34°41' E 135°12'0 0.0
2017-Dec-03 21:30N 34°41' E 135°12'0 0.0
2017-Dec-03 21:00N 34°41' E 135°12'0 0.0
2017-Dec-03 20:30N 34°41' E 135°12'0 0.0
2017-Dec-03 20:00N 34°41' E 135°12'0 0.0
2017-Dec-03 19:30N 34°41' E 135°12'0 0.0
2017-Dec-03 19:00N 34°41' E 135°12'0 0.0
2017-Dec-03 18:30N 34°41' E 135°12'0 0.0
2017-Dec-03 18:00N 34°41' E 135°12'0 0.0
2017-Dec-03 17:30N 34°41' E 135°12'0 0.0
2017-Dec-03 17:00N 34°41' E 135°12'0 0.0
2017-Dec-03 16:30N 34°41' E 135°12'0 0.0
2017-Dec-03 16:00N 34°41' E 135°12'0 0.0
2017-Dec-03 15:30N 34°41' E 135°12'0 0.0
2017-Dec-03 15:00N 34°41' E 135°12'0 0.0
2017-Dec-03 14:30N 34°41' E 135°12'0 0.0
2017-Dec-03 14:00N 34°41' E 135°12'0 0.0
2017-Dec-03 13:30N 34°41' E 135°12'0 0.0
2017-Dec-03 13:00N 34°41' E 135°12'1 2.1
2017-Dec-03 12:30N 34°40' E 135°11'611.3
2017-Dec-03 12:00N 34°35' E 135°09'611.5
2017-Dec-03 11:30N 34°29' E 135°06'612.1
2017-Dec-03 11:00N 34°24' E 135°03'612.1
2017-Dec-03 10:30N 34°18' E 135°00'612.1
2017-Dec-03 10:00N 34°12' E 134°59'611.8
2017-Dec-03 09:30N 34°07' E 134°57'612.1
2017-Dec-03 09:00N 34°00' E 134°55'611.5
2017-Dec-03 08:30N 33°55' E 134°53'611.4
2017-Dec-03 07:57N 33°49' E 134°50'1 0.1
2017-Dec-02 07:15N 33°51' E 134°51'512.6
2017-Dec-02 06:49N 33°56' E 134°52'412.2
2017-Dec-02 06:30N 33°60' E 134°53'612.5
2017-Dec-02 06:00N 34°06' E 134°55'612.7
2017-Dec-02 05:30N 34°12' E 134°57'713.7
2017-Dec-02 05:00N 34°19' E 134°59'713.1
2017-Dec-02 04:30N 34°24' E 135°02'713.1
2017-Dec-02 04:00N 34°30' E 135°07'612.9
2017-Dec-02 03:30N 34°35' E 135°12'510.9
2017-Dec-02 03:00N 34°39' E 135°16'3 5.7
2017-Dec-02 02:30N 34°42' E 135°14'0 0.0
2017-Dec-02 02:00N 34°42' E 135°14'0 0.0
2017-Dec-02 01:30N 34°42' E 135°14'0 0.0
2017-Dec-02 01:00N 34°42' E 135°14'0 0.0
2017-Dec-02 00:30N 34°42' E 135°14'0 0.0
2017-Dec-02 00:00N 34°42' E 135°14'0 0.0
2017-Dec-01 23:30N 34°42' E 135°14'0 0.0
2017-Dec-01 23:00N 34°42' E 135°14'3 6.2
2017-Dec-01 22:30N 34°39' E 135°16'2 4.1
2017-Dec-01 22:00N 34°37' E 135°17'0 0.0
2017-Dec-01 21:30N 34°37' E 135°17'0 0.0
2017-Dec-01 21:00N 34°37' E 135°17'0 0.0
2017-Dec-01 20:30N 34°37' E 135°17'0 0.0
2017-Dec-01 20:00N 34°37' E 135°17'0 0.0
2017-Dec-01 19:30N 34°37' E 135°17'0 0.0
2017-Dec-01 19:00N 34°37' E 135°17'2 3.6
2017-Dec-01 18:30N 34°36' E 135°16'611.8
2017-Dec-01 18:00N 34°31' E 135°12'611.0
2017-Dec-01 17:30N 34°27' E 135°08'611.1
2017-Dec-01 17:00N 34°22' E 135°04'611.1
2017-Dec-01 16:30N 34°18' E 134°60'5 9.2
2017-Dec-01 16:00N 34°13' E 134°59'510.2
2017-Dec-01 15:30N 34°08' E 134°58'510.9
2017-Dec-01 15:00N 34°03' E 134°57'510.9
2017-Dec-01 14:30N 33°58' E 134°55'510.2
2017-Dec-01 14:00N 33°53' E 134°52'  

Dump ship's entire track history